Weather History for Ada, OK

Change the Weather History Date:

Wednesday, January 1, 2014

  Actual Average Record
Temperature  
Mean Temperature 41 °F -  
Max Temperature 59 °F 46 °F 77 °F (1952)
Min Temperature 23 °F 25 °F 3 °F (1928)
Degree Days  
Heating Degree Days 24    
Moisture  
Dew Point 31 °F    
Average Humidity 74    
Maximum Humidity 93    
Minimum Humidity 45    
Precipitation  
Precipitation 0.00 in - - ()
Sea Level Pressure  
Sea Level Pressure 30.03 in    
Wind  
Wind Speed 11 mph (South)    
Max Wind Speed 22 mph    
Max Gust Speed 37 mph    
Visibility 10 miles    
Events      
Averages and records for this station are not official NWS values.
T = Trace of Precipitation, MM = Missing Value Source: NWS Daily Summary

Daily Weather History Graph

Daily Weather History Graph

Search for Another Location

Airport:

Trip Planner

Search our weather history database for the weather conditions in past years. The results will help you decide how hot, cold, wet, or windy it might be!

Date:

Astronomy

Jan. 01, 2014 Rise Set
Actual Time 7:34 AM CST 5:26 PM CST
Civil Twilight 7:06 AM CST 5:54 PM CST
Nautical Twilight 6:34 AM CST 6:26 PM CST
Astronomical Twilight 6:04 AM CST 6:56 PM CST
Moon 7:28 AM CST (1/1) 6:09 PM CST (1/1)
Length of Visible Light 10h 48m
Length of Day
9h 52m
New Moon, 0% of the Moon is Illuminated
Jan 1
New Moon
Jan 7
First Quarter
Jan 15
Full
Jan 23
Last Quarter
Jan 30
New

Hourly Weather History & Observations

Time (CST) Temp. Windchill Dew Point Humidity Pressure Visibility Wind Dir Wind Speed Gust Speed Precip Events Conditions
12:15 AM 35.6 °F 28.0 °F 28.4 °F 75% 30.16 in 10.0 mi SSE 10.4 mph - N/A   Clear
12:35 AM 33.8 °F 27.0 °F 26.6 °F 75% 30.14 in 10.0 mi SE 8.1 mph - N/A   Clear
12:55 AM 33.8 °F 26.4 °F 26.6 °F 75% 30.14 in 10.0 mi SSE 9.2 mph - N/A   Clear
1:15 AM 33.8 °F 27.0 °F 26.6 °F 75% 30.12 in 10.0 mi SSE 8.1 mph - N/A   Clear
1:35 AM 33.8 °F 27.0 °F 28.4 °F 81% 30.12 in 10.0 mi SSE 8.1 mph - N/A   Clear
1:55 AM 33.8 °F 25.3 °F 28.4 °F 81% 30.11 in 10.0 mi SSE 11.5 mph - N/A   Clear
2:15 AM 33.8 °F 25.8 °F 28.4 °F 81% 30.11 in 10.0 mi South 10.4 mph - N/A   Clear
2:35 AM 33.8 °F 25.8 °F 28.4 °F 81% 30.10 in 10.0 mi SSE 10.4 mph - N/A   Clear
2:55 AM 32.0 °F 24.2 °F 28.4 °F 87% 30.10 in 10.0 mi SSE 9.2 mph - N/A   Clear
3:15 AM 32.0 °F 24.2 °F 28.4 °F 87% 30.09 in 10.0 mi SSE 9.2 mph - N/A   Clear
3:35 AM 32.0 °F 24.8 °F 28.4 °F 87% 30.08 in 10.0 mi SE 8.1 mph - N/A   Clear
3:55 AM 32.0 °F 24.2 °F 28.4 °F 87% 30.07 in 10.0 mi SE 9.2 mph - N/A   Clear
4:15 AM 32.0 °F 24.2 °F 28.4 °F 87% 30.06 in 10.0 mi SE 9.2 mph - N/A   Clear
4:35 AM 32.0 °F 24.8 °F 28.4 °F 87% 30.05 in 10.0 mi SSE 8.1 mph - N/A   Clear
4:55 AM 32.0 °F 23.6 °F 28.4 °F 87% 30.05 in 10.0 mi SSE 10.4 mph - N/A   Clear
5:15 AM 32.0 °F 23.0 °F 28.4 °F 87% 30.03 in 10.0 mi SSE 11.5 mph 17.3 mph N/A   Clear
5:35 AM 32.0 °F 22.1 °F 28.4 °F 87% 30.03 in 10.0 mi SSE 13.8 mph - N/A   Clear
5:55 AM 32.0 °F 22.5 °F 28.4 °F 87% 30.02 in 10.0 mi SSE 12.7 mph - N/A   Clear
6:15 AM 32.0 °F 22.1 °F 28.4 °F 87% 30.02 in 10.0 mi SSE 13.8 mph - N/A   Clear
6:35 AM 32.0 °F 22.5 °F 30.2 °F 93% 30.01 in 10.0 mi SSE 12.7 mph - N/A   Clear
6:55 AM 32.0 °F 22.1 °F 30.2 °F 93% 30.01 in 10.0 mi SSE 13.8 mph 19.6 mph N/A   Clear
7:15 AM 32.0 °F 22.1 °F 30.2 °F 93% 30.01 in 10.0 mi SSE 13.8 mph 18.4 mph N/A   Clear
7:35 AM 32.0 °F 22.5 °F 30.2 °F 93% 30.00 in 10.0 mi SE 12.7 mph 21.9 mph N/A   Clear
7:55 AM 32.0 °F 22.1 °F 30.2 °F 93% 30.00 in 10.0 mi SE 13.8 mph - N/A   Clear
8:15 AM 32.0 °F 23.0 °F 30.2 °F 93% 30.00 in 10.0 mi SE 11.5 mph 20.7 mph N/A   Clear
8:35 AM 32.0 °F 22.1 °F 30.2 °F 93% 30.00 in 10.0 mi SSE 13.8 mph 18.4 mph N/A   Clear
8:55 AM 32.0 °F 22.5 °F 30.2 °F 93% 29.99 in 10.0 mi SE 12.7 mph 18.4 mph N/A   Clear
9:15 AM 33.8 °F 25.3 °F 32.0 °F 93% 29.99 in 10.0 mi SSE 11.5 mph - N/A   Clear
9:35 AM 35.6 °F 27.1 °F 32.0 °F 87% 29.99 in 10.0 mi SSE 12.7 mph - N/A   Clear
9:55 AM 37.4 °F 28.9 °F 32.0 °F 81% 29.99 in 10.0 mi SE 13.8 mph - N/A   Clear
10:15 AM 37.4 °F 28.9 °F 32.0 °F 81% 29.99 in 10.0 mi SSE 13.8 mph - N/A   Clear
10:35 AM 41.0 °F 33.9 °F 32.0 °F 70% 29.98 in 10.0 mi SSE 12.7 mph - N/A   Clear
10:55 AM 44.6 °F 39.7 °F 33.8 °F 66% 29.96 in 10.0 mi SSE 9.2 mph - N/A   Clear
11:15 AM 46.4 °F 41.9 °F 33.8 °F 62% 29.95 in 10.0 mi South 9.2 mph - N/A   Clear
11:35 AM 46.4 °F 41.1 °F 35.6 °F 66% 29.93 in 10.0 mi SSE 11.5 mph - N/A   Clear
11:55 AM 50.0 °F - 35.6 °F 58% 29.91 in 10.0 mi SSE 11.5 mph - N/A   Clear
12:15 PM 51.8 °F - 35.6 °F 54% 29.90 in 10.0 mi SSE 9.2 mph 16.1 mph N/A   Clear
12:35 PM 53.6 °F - 37.4 °F 54% 29.89 in 10.0 mi SSW 6.9 mph - N/A   Clear
12:55 PM 55.4 °F - 37.4 °F 51% 29.88 in 10.0 mi South 12.7 mph - N/A   Clear
1:15 PM 55.4 °F - 37.4 °F 51% 29.87 in 10.0 mi SSW 10.4 mph 19.6 mph N/A   Clear
1:35 PM 55.4 °F - 37.4 °F 51% 29.87 in 10.0 mi SW 9.2 mph - N/A   Clear
1:55 PM 59.0 °F - 37.4 °F 45% 29.87 in 10.0 mi WSW 9.2 mph 17.3 mph N/A   Clear
2:15 PM 57.2 °F - 37.4 °F 48% 29.87 in 10.0 mi SW 10.4 mph 16.1 mph N/A   Clear
2:35 PM 57.2 °F - 39.2 °F 51% 29.87 in 10.0 mi SSW 5.8 mph - N/A   Clear
2:55 PM 59.0 °F - 39.2 °F 48% 29.87 in 10.0 mi WSW 10.4 mph - N/A   Clear
3:15 PM 59.0 °F - 39.2 °F 48% 29.88 in 10.0 mi West 6.9 mph - N/A   Clear
3:35 PM 59.0 °F - 39.2 °F 48% 29.87 in 10.0 mi WSW 3.5 mph - N/A   Clear
3:55 PM 59.0 °F - 41.0 °F 51% 29.89 in 10.0 mi Calm Calm - N/A   Clear
4:15 PM 59.0 °F - 39.2 °F 48% 29.90 in 10.0 mi NW 4.6 mph - N/A   Clear
4:35 PM 55.4 °F - 37.4 °F 51% 29.91 in 10.0 mi NW 6.9 mph - N/A   Clear
4:55 PM 55.4 °F - 37.4 °F 51% 29.92 in 10.0 mi NW 9.2 mph - N/A   Clear
5:15 PM 53.6 °F - 35.6 °F 51% 29.93 in 10.0 mi NW 6.9 mph - N/A   Clear
5:35 PM 51.8 °F - 35.6 °F 54% 29.95 in 10.0 mi NNW 9.2 mph - N/A   Clear
5:55 PM 50.0 °F - 35.6 °F 58% 29.96 in 10.0 mi NNW 12.7 mph 20.7 mph N/A   Clear
6:15 PM 48.2 °F - 35.6 °F 62% 29.99 in 10.0 mi NNW 13.8 mph 21.9 mph N/A   Clear
6:35 PM 44.6 °F 36.1 °F 33.8 °F 66% 30.01 in 10.0 mi NNW 21.9 mph 36.8 mph N/A   Clear
6:55 PM 37.4 °F 27.8 °F 32.0 °F 81% 30.05 in 10.0 mi NNW 17.3 mph 27.6 mph N/A   Clear
7:15 PM 35.6 °F 26.2 °F 30.2 °F 81% 30.07 in 10.0 mi NNW 15.0 mph 27.6 mph N/A   Clear
7:35 PM 33.8 °F 24.3 °F 28.4 °F 81% 30.09 in 10.0 mi North 13.8 mph 23.0 mph N/A   Clear
7:55 PM 32.0 °F 20.5 °F 26.6 °F 80% 30.11 in 10.0 mi NNW 18.4 mph 24.2 mph N/A   Clear
8:15 PM 32.0 °F 19.8 °F 26.6 °F 80% 30.12 in 10.0 mi NNW 20.7 mph 28.8 mph N/A   Clear
8:35 PM 30.2 °F 18.5 °F 24.8 °F 80% 30.14 in 10.0 mi NNW 17.3 mph 27.6 mph N/A   Clear
8:55 PM 28.4 °F 17.0 °F 23.0 °F 80% 30.16 in 10.0 mi NW 15.0 mph 23.0 mph N/A   Clear
9:15 PM 28.4 °F 14.7 °F 23.0 °F 80% 30.17 in 10.0 mi NNW 21.9 mph 33.4 mph N/A   Clear
9:35 PM 28.4 °F 18.0 °F 21.2 °F 74% 30.18 in 10.0 mi NNW 12.7 mph 27.6 mph N/A   Mostly Cloudy
9:55 PM 26.6 °F 14.7 °F 21.2 °F 80% 30.19 in 10.0 mi NNW 15.0 mph 25.3 mph N/A   Mostly Cloudy
10:15 PM 26.6 °F 14.7 °F 19.4 °F 74% 30.19 in 10.0 mi NNW 15.0 mph 27.6 mph N/A   Scattered Clouds
10:35 PM 26.6 °F 16.2 °F 19.4 °F 74% 30.20 in 10.0 mi NNW 11.5 mph 24.2 mph N/A   Scattered Clouds
10:55 PM 24.8 °F 11.9 °F 19.4 °F 80% 30.21 in 10.0 mi NNW 16.1 mph 27.6 mph N/A   Clear
11:15 PM 24.8 °F 11.1 °F 19.4 °F 80% 30.22 in 10.0 mi NNW 18.4 mph 26.5 mph N/A   Mostly Cloudy
11:35 PM 23.0 °F 8.3 °F 19.4 °F 86% 30.23 in 10.0 mi NNW 19.6 mph 26.5 mph N/A   Overcast
11:55 PM 23.0 °F 9.2 °F 19.4 °F 86% 30.24 in 10.0 mi NNW 17.3 mph 24.2 mph N/A   Overcast